Time;durP1;ratioP1;P1;durP2;ratioP2;P2;SDS_P1;SDS_P2;PMS_P1;PMS_P2;Temp;Humidity;BMP_temperature;BMP_pressure;BME280_temperature;BME280_humidity;BME280_pressure;Samples;Min_cycle;Max_cycle;Signal;HPM_P1;HPM_P2
2023/05/20 00:02:18;;;;;;;2.63;1.00;;;13.80;60.20;;;;;;6195775;23;20020;-88
2023/05/20 00:04:55;;;;;;;4.47;0.68;;;13.80;60.40;;;;;;6195467;23;20051;-88
2023/05/20 00:07:22;;;;;;;3.80;1.20;;;13.80;60.50;;;;;;6195593;23;20020;-89
2023/05/20 00:09:50;;;;;;;2.78;0.60;;;13.70;60.60;;;;;;6194405;23;20027;-89
2023/05/20 00:12:19;;;;;;;4.43;0.88;;;13.70;60.70;;;;;;6195411;23;20454;-85
2023/05/20 00:14:47;;;;;;;1.75;0.80;;;13.70;60.90;;;;;;6205625;23;20039;-89
2023/05/20 00:17:15;;;;;;;3.85;0.80;;;13.70;60.80;;;;;;6206939;23;20024;-88
2023/05/20 00:19:42;;;;;;;2.60;0.80;;;13.70;61.10;;;;;;6208007;23;20027;-87
2023/05/20 00:22:10;;;;;;;2.65;0.82;;;13.70;61.10;;;;;;6178157;23;20020;-89
2023/05/20 00:24:37;;;;;;;1.48;0.60;;;13.70;61.40;;;;;;6219977;23;20019;-88
2023/05/20 00:27:05;;;;;;;4.03;0.85;;;13.70;61.20;;;;;;6195148;23;20008;-87
2023/05/20 00:29:33;;;;;;;3.38;0.73;;;13.70;61.40;;;;;;6219621;23;20020;-88
2023/05/20 00:32:00;;;;;;;5.63;1.00;;;13.70;61.40;;;;;;6194367;23;20024;-88
2023/05/20 00:34:31;;;;;;;4.75;1.20;;;13.70;61.50;;;;;;6194964;23;20055;-88
2023/05/20 00:37:01;;;;;;;3.63;0.77;;;13.70;61.60;;;;;;6195002;22;20024;-89
2023/05/20 00:39:31;;;;;;;3.55;0.98;;;13.70;61.60;;;;;;6196481;23;20082;-89
2023/05/20 00:42:01;;;;;;;1.77;0.95;;;13.70;61.80;;;;;;6220129;23;20056;-88
2023/05/20 00:44:31;;;;;;;3.55;1.08;;;13.80;61.90;;;;;;6170640;23;20031;-88
2023/05/20 00:46:58;;;;;;;2.67;1.05;;;13.70;61.80;;;;;;6194983;23;20016;-88
2023/05/20 00:49:26;;;;;;;3.40;0.98;;;13.80;61.90;;;;;;6194470;23;20016;-88
2023/05/20 00:52:00;;;;;;;2.47;0.75;;;13.80;61.90;;;;;;6171318;23;20111;-88
2023/05/20 00:54:30;;;;;;;;;;;13.80;61.90;;;;;;6195025;23;20020;-88
2023/05/20 00:57:01;;;;;;;3.72;0.70;;;13.70;61.80;;;;;;6195459;23;19995;-88
2023/05/20 00:59:31;;;;;;;3.00;0.52;;;13.70;62.00;;;;;;6170311;23;20046;-88
2023/05/20 01:02:08;;;;;;;1.67;0.68;;;13.70;62.10;;;;;;6195487;23;20016;-88
2023/05/20 01:04:37;;;;;;;3.13;0.80;;;13.70;62.20;;;;;;6220976;23;20028;-85
2023/05/20 01:07:15;;;;;;;3.28;1.00;;;13.70;62.20;;;;;;6232618;23;20023;-84
2023/05/20 01:09:48;;;;;;;3.63;1.10;;;13.60;62.50;;;;;;6230964;23;20022;-84
2023/05/20 01:12:42;;;;;;;4.13;1.02;;;13.60;62.80;;;;;;6199737;23;20020;-87
2023/05/20 01:15:17;;;;;;;2.85;1.00;;;13.50;63.10;;;;;;6195818;23;20058;-88
2023/05/20 01:17:46;;;;;;;4.15;1.27;;;13.50;63.20;;;;;;6220314;23;20406;-88
2023/05/20 01:20:14;;;;;;;4.40;1.02;;;13.40;63.40;;;;;;6195604;23;20023;-88
2023/05/20 01:22:57;;;;;;;4.20;1.40;;;13.40;63.70;;;;;;6221783;23;20016;-89
2023/05/20 01:25:25;;;;;;;3.95;1.65;;;13.40;63.80;;;;;;6221281;23;20047;-88
2023/05/20 01:27:55;;;;;;;3.45;1.08;;;13.30;63.80;;;;;;6196452;23;20012;-89
2023/05/20 01:30:27;;;;;;;2.67;1.02;;;13.30;63.80;;;;;;6221299;23;20074;-88
2023/05/20 01:33:01;;;;;;;3.20;1.05;;;13.40;64.00;;;;;;6221191;23;20024;-88
2023/05/20 01:35:29;;;;;;;4.10;1.02;;;13.40;64.00;;;;;;6196984;23;20023;-88
2023/05/20 01:37:58;;;;;;;3.83;1.35;;;13.40;64.10;;;;;;6196146;23;20091;-88
2023/05/20 01:40:27;;;;;;;4.65;0.80;;;13.30;64.30;;;;;;6196259;23;20082;-88
2023/05/20 01:42:58;;;;;;;3.38;1.20;;;13.30;64.50;;;;;;6196696;23;20016;-88
2023/05/20 01:45:25;;;;;;;5.90;1.48;;;13.40;64.70;;;;;;6196547;23;20047;-88
2023/05/20 01:48:05;;;;;;;2.78;1.13;;;13.40;64.70;;;;;;6221263;23;20040;-89
2023/05/20 01:50:33;;;;;;;2.70;1.17;;;13.40;64.80;;;;;;6221476;23;20099;-89
2023/05/20 01:53:03;;;;;;;2.95;1.20;;;13.40;65.00;;;;;;6221495;23;20402;-88
2023/05/20 01:55:34;;;;;;;4.05;1.17;;;13.40;65.00;;;;;;6221057;23;20073;-88
2023/05/20 01:58:02;;;;;;;5.38;1.20;;;13.40;65.10;;;;;;6196207;23;20446;-89
2023/05/20 02:00:37;;;;;;;3.38;1.27;;;13.40;65.10;;;;;;6197419;23;20016;-88
2023/05/20 02:03:07;;;;;;;4.63;1.25;;;13.40;65.10;;;;;;6196417;23;20024;-87
2023/05/20 02:05:41;;;;;;;2.72;1.02;;;13.40;65.20;;;;;;6201691;23;20016;-88
2023/05/20 02:08:09;;;;;;;4.32;1.63;;;13.40;65.30;;;;;;6239080;23;20035;-87
2023/05/20 02:10:37;;;;;;;6.22;1.02;;;13.30;66.00;;;;;;6235123;23;20024;-87
2023/05/20 02:13:11;;;;;;;4.07;0.95;;;13.30;65.60;;;;;;6223182;23;20016;-88
2023/05/20 02:15:44;;;;;;;3.38;1.35;;;13.30;65.90;;;;;;6221314;23;20062;-87
2023/05/20 02:18:17;;;;;;;4.90;1.60;;;13.20;66.00;;;;;;6197462;23;20020;-88
2023/05/20 02:20:50;;;;;;;3.55;1.00;;;13.20;66.10;;;;;;6197749;23;20023;-88
2023/05/20 02:23:22;;;;;;;5.10;1.35;;;13.20;66.20;;;;;;6199631;23;20012;-87
2023/05/20 02:25:50;;;;;;;2.83;1.33;;;13.20;66.30;;;;;;6222189;23;20016;-87
2023/05/20 02:28:19;;;;;;;2.53;1.10;;;13.20;66.30;;;;;;6199118;23;20016;-88
2023/05/20 02:30:52;;;;;;;4.05;1.33;;;13.20;66.30;;;;;;6200404;23;20398;-94
2023/05/20 02:33:26;;;;;;;4.18;1.20;;;13.20;66.60;;;;;;6237273;23;20020;-96
2023/05/20 02:36:05;;;;;;;4.80;1.40;;;13.20;66.40;;;;;;6207756;23;20026;-96
2023/05/20 02:38:49;;;;;;;2.63;0.82;;;13.20;66.50;;;;;;6207487;23;20055;-95
2023/05/20 02:41:26;;;;;;;4.80;1.13;;;13.20;66.50;;;;;;6228935;23;20023;-96
2023/05/20 02:44:01;;;;;;;2.58;1.00;;;13.20;66.60;;;;;;6231144;23;20102;-95
2023/05/20 02:46:56;;;;;;;5.25;1.20;;;13.20;66.80;;;;;;6230285;23;20080;-96
2023/05/20 02:49:34;;;;;;;2.50;0.90;;;13.20;66.80;;;;;;6207378;23;20047;-95
2023/05/20 02:52:27;;;;;;;2.78;1.10;;;13.20;66.90;;;;;;6201807;23;20051;-96
2023/05/20 02:55:06;;;;;;;2.70;1.25;;;13.10;67.10;;;;;;6216617;23;20012;-96
2023/05/20 02:57:47;;;;;;;2.97;0.90;;;13.10;67.20;;;;;;6238636;23;20024;-96
2023/05/20 03:00:22;;;;;;;4.50;1.02;;;13.00;67.20;;;;;;6247109;23;20071;-96
2023/05/20 03:07:48;;;;;;;3.05;1.58;;;12.90;67.40;;;;;;6171629;23;20016;-96
2023/05/20 03:10:23;;;;;;;4.90;1.13;;;12.90;67.90;;;;;;6193405;23;20020;-96
2023/05/20 03:12:55;;;;;;;2.50;1.00;;;12.80;68.00;;;;;;6217515;22;20048;-96
2023/05/20 03:15:30;;;;;;;3.58;0.90;;;12.80;68.10;;;;;;6194672;22;20027;-96
2023/05/20 03:18:28;;;;;;;2.58;1.05;;;12.70;68.20;;;;;;6194800;22;20008;-96
2023/05/20 03:26:07;;;;;;;3.10;1.60;;;12.60;68.50;;;;;;6270649;22;20007;-96
2023/05/20 03:29:13;;;;;;;2.87;1.10;;;12.50;68.80;;;;;;6214545;23;20070;-96
2023/05/20 03:32:31;;;;;;;1.98;0.93;;;12.50;68.90;;;;;;6219458;23;20322;-96
2023/05/20 03:35:09;;;;;;;3.33;1.20;;;12.50;69.00;;;;;;6204764;23;20096;-96
2023/05/20 03:37:41;;;;;;;1.38;0.70;;;12.40;69.20;;;;;;6204927;23;20062;-95
2023/05/20 03:40:12;;;;;;;4.50;1.10;;;12.40;69.30;;;;;;6177734;23;20407;-96
2023/05/20 03:42:57;;;;;;;4.88;1.40;;;12.40;69.50;;;;;;6200486;23;20042;-96
2023/05/20 03:45:28;;;;;;;2.70;1.08;;;12.40;69.70;;;;;;6222657;23;20055;-96
2023/05/20 03:48:11;;;;;;;2.35;1.10;;;12.40;69.90;;;;;;6223308;23;20016;-96
2023/05/20 03:50:51;;;;;;;1.88;1.13;;;12.40;69.90;;;;;;6233161;23;20016;-96
2023/05/20 03:53:23;;;;;;;2.33;1.30;;;12.30;69.90;;;;;;6220470;23;20016;-96
2023/05/20 03:55:54;;;;;;;3.15;1.00;;;12.30;69.90;;;;;;6192380;23;20012;-96
2023/05/20 03:58:42;;;;;;;3.20;0.90;;;12.40;70.00;;;;;;6216011;23;20043;-96
2023/05/20 04:01:50;;;;;;;2.90;0.80;;;12.30;70.00;;;;;;6116231;23;20123;-96
2023/05/20 04:04:41;;;;;;;;;;;;;;;;;;;;;
2023/05/20 04:07:28;;;;;;;4.60;1.20;;;12.30;70.20;;;;;;6224391;23;20012;-96
2023/05/20 04:10:06;;;;;;;2.88;1.13;;;12.30;70.20;;;;;;6235410;23;20015;-96
2023/05/20 04:12:54;;;;;;;3.45;0.85;;;12.30;70.30;;;;;;6163211;23;20064;-95
2023/05/20 04:15:38;;;;;;;3.75;1.33;;;12.30;70.50;;;;;;6208435;23;20027;-96
2023/05/20 04:18:09;;;;;;;7.38;1.25;;;12.30;70.70;;;;;;6201971;23;20043;-96
2023/05/20 04:20:46;;;;;;;3.90;1.17;;;12.30;71.10;;;;;;6199703;23;20026;-96
2023/05/20 04:23:24;;;;;;;3.15;1.65;;;12.30;71.10;;;;;;6200322;23;20058;-96
2023/05/20 04:26:01;;;;;;;4.72;1.63;;;12.30;71.10;;;;;;6198586;23;20513;-95
2023/05/20 04:28:31;;;;;;;2.88;1.27;;;12.30;71.10;;;;;;6198244;23;20040;-96
2023/05/20 04:31:03;;;;;;;2.50;0.90;;;12.40;71.20;;;;;;6198207;23;20020;-96
2023/05/20 04:33:36;;;;;;;3.50;1.00;;;12.30;71.00;;;;;;6222365;23;20016;-96
2023/05/20 04:36:15;;;;;;;3.72;0.88;;;12.30;71.10;;;;;;6197736;23;20031;-96
2023/05/20 04:38:43;;;;;;;2.85;0.80;;;12.40;71.00;;;;;;6197690;23;20020;-96
2023/05/20 04:41:16;;;;;;;3.20;1.10;;;12.40;71.10;;;;;;6197694;23;20016;-96
2023/05/20 04:43:49;;;;;;;2.25;0.98;;;12.40;71.10;;;;;;6175086;23;20036;-96
2023/05/20 04:46:17;;;;;;;3.08;1.05;;;12.40;71.10;;;;;;6197337;23;20465;-96
2023/05/20 04:48:46;;;;;;;2.95;1.10;;;12.50;71.10;;;;;;6197800;23;20040;-96
2023/05/20 04:51:17;;;;;;;2.45;1.00;;;12.60;70.90;;;;;;6199509;23;20020;-96
2023/05/20 04:53:49;;;;;;;1.65;0.70;;;12.60;70.90;;;;;;6198447;23;20043;-96
2023/05/20 04:56:21;;;;;;;2.60;0.75;;;12.60;70.90;;;;;;6199857;23;20054;-96
2023/05/20 04:59:00;;;;;;;3.03;1.10;;;12.60;70.80;;;;;;6201398;23;20050;-96
2023/05/20 05:01:33;;;;;;;2.20;0.93;;;12.60;70.90;;;;;;6200156;23;20019;-96
2023/05/20 05:04:00;;;;;;;1.95;0.70;;;12.60;70.90;;;;;;6200454;23;20015;-96
2023/05/20 05:06:38;;;;;;;3.53;0.90;;;12.60;70.90;;;;;;6202866;23;20044;-96
2023/05/20 05:09:13;;;;;;;2.78;1.00;;;12.60;70.90;;;;;;6205056;23;20016;-96
2023/05/20 05:11:52;;;;;;;2.00;0.88;;;12.60;70.80;;;;;;6205432;23;20067;-96
2023/05/20 05:14:21;;;;;;;3.13;0.80;;;12.70;70.80;;;;;;6154257;23;20016;-96
2023/05/20 05:17:01;;;;;;;2.80;1.42;;;12.70;70.80;;;;;;6203787;23;20020;-96
2023/05/20 05:19:31;;;;;;;3.55;1.73;;;12.70;70.80;;;;;;6227565;23;20020;-96
2023/05/20 05:22:02;;;;;;;2.67;1.15;;;12.80;71.00;;;;;;6216120;23;20046;-96
2023/05/20 05:24:35;;;;;;;2.53;0.98;;;12.80;70.90;;;;;;6218442;23;20019;-94
2023/05/20 05:27:03;;;;;;;2.45;1.02;;;12.80;70.80;;;;;;6216917;23;20020;-94
2023/05/20 05:29:30;;;;;;;2.17;1.23;;;12.80;70.90;;;;;;6224699;22;20027;-96
2023/05/20 05:32:03;;;;;;;3.40;0.93;;;12.90;70.80;;;;;;6250024;23;20023;-96
2023/05/20 05:34:31;;;;;;;3.72;1.25;;;12.90;70.80;;;;;;6226493;22;20004;-96
2023/05/20 05:36:58;;;;;;;3.13;0.95;;;13.00;70.80;;;;;;6224536;22;20076;-96
2023/05/20 05:39:36;;;;;;;3.05;1.45;;;13.10;70.70;;;;;;6215100;23;20016;-96
2023/05/20 05:42:18;;;;;;;2.85;0.90;;;13.20;70.60;;;;;;6228964;23;20095;-96
2023/05/20 05:44:50;;;;;;;2.97;1.20;;;13.30;70.40;;;;;;6203722;23;20070;-96
2023/05/20 05:47:32;;;;;;;1.67;0.80;;;13.40;70.20;;;;;;6205138;23;20509;-96
2023/05/20 05:50:04;;;;;;;2.30;0.90;;;13.50;69.90;;;;;;6184064;23;20434;-96
2023/05/20 05:52:57;;;;;;;2.95;0.70;;;13.60;69.80;;;;;;6208873;23;20020;-96
2023/05/20 05:55:40;;;;;;;2.38;0.93;;;13.70;69.60;;;;;;6216819;23;20075;-96
2023/05/20 05:58:16;;;;;;;5.00;0.82;;;13.80;69.40;;;;;;6209982;23;20028;-96
2023/05/20 06:00:53;;;;;;;2.85;0.65;;;13.90;69.20;;;;;;6239592;23;20020;-96
2023/05/20 06:03:31;;;;;;;3.47;0.70;;;14.00;69.10;;;;;;6231137;23;20044;-96
2023/05/20 06:06:15;;;;;;;2.40;0.88;;;14.10;69.00;;;;;;6210067;23;20434;-96
2023/05/20 06:13:28;;;;;;;1.45;0.75;;;14.30;68.60;;;;;;6003403;23;20038;-96
2023/05/20 06:16:08;;;;;;;3.05;1.00;;;14.40;68.40;;;;;;5981715;23;20023;-96
2023/05/20 06:18:36;;;;;;;1.90;0.75;;;14.40;68.30;;;;;;6022840;23;20020;-95
2023/05/20 06:21:16;;;;;;;2.13;0.95;;;14.50;68.10;;;;;;6024149;23;20539;-96
2023/05/20 06:29:41;;;;;;;2.17;0.70;;;14.80;67.80;;;;;;6022986;23;20477;-96
2023/05/20 06:37:29;;;;;;;;;;;;;;;;;;;;;
2023/05/20 06:40:02;;;;;;;3.15;1.00;;;15.20;67.00;;;;;;6146933;23;20036;-96
2023/05/20 06:42:38;;;;;;;1.88;0.70;;;15.30;66.80;;;;;;6204242;23;20073;-96
2023/05/20 06:45:38;;;;;;;3.97;1.27;;;15.40;66.70;;;;;;6235776;23;20024;-96
2023/05/20 06:48:29;;;;;;;1.95;0.60;;;15.50;66.50;;;;;;6185225;23;20017;-96
2023/05/20 06:51:19;;;;;;;1.67;0.50;;;15.50;66.30;;;;;;6184836;23;20035;-96
2023/05/20 06:54:20;;;;;;;0.77;0.45;;;15.60;66.10;;;;;;6237416;23;20020;-96
2023/05/20 06:57:01;;;;;;;1.73;0.65;;;15.70;66.00;;;;;;6233004;23;20051;-96
2023/05/20 06:59:36;;;;;;;1.88;0.80;;;15.80;65.80;;;;;;6180091;23;20016;-96
2023/05/20 07:02:37;;;;;;;;;;;;;;;;;;;;;
2023/05/20 07:05:16;;;;;;;3.47;0.70;;;15.90;65.40;;;;;;6207479;23;20048;-96
2023/05/20 07:07:48;;;;;;;1.50;0.60;;;16.00;65.20;;;;;;6207871;23;20082;-88
2023/05/20 07:10:19;;;;;;;2.55;0.77;;;16.10;65.00;;;;;;6195080;23;20050;-88
2023/05/20 07:12:47;;;;;;;3.17;1.13;;;16.10;64.80;;;;;;6195468;23;20043;-89
2023/05/20 07:15:18;;;;;;;2.35;0.90;;;16.20;64.60;;;;;;6195638;23;20099;-88
2023/05/20 07:17:52;;;;;;;2.00;0.90;;;16.30;64.40;;;;;;6195411;23;20020;-88
2023/05/20 07:20:24;;;;;;;2.25;0.85;;;16.40;64.10;;;;;;6195902;23;20044;-89
2023/05/20 07:22:55;;;;;;;3.63;0.85;;;16.50;63.90;;;;;;6194708;23;20054;-88
2023/05/20 07:25:33;;;;;;;2.85;1.05;;;16.60;63.70;;;;;;6197157;23;20476;-88
2023/05/20 07:28:05;;;;;;;2.50;0.70;;;16.70;63.50;;;;;;6195222;23;20051;-87
2023/05/20 07:30:36;;;;;;;4.28;1.17;;;16.70;63.40;;;;;;6194698;23;20028;-88
2023/05/20 07:33:22;;;;;;;2.50;1.10;;;16.80;63.10;;;;;;6220179;23;20118;-88
2023/05/20 07:35:53;;;;;;;2.05;0.80;;;16.80;63.00;;;;;;6171164;23;20016;-86
2023/05/20 07:38:22;;;;;;;2.45;0.90;;;16.90;62.90;;;;;;6172190;23;20047;-86
2023/05/20 07:41:02;;;;;;;2.75;0.70;;;16.90;62.70;;;;;;6196861;23;20066;-88
2023/05/20 07:43:33;;;;;;;1.63;0.80;;;17.00;62.60;;;;;;6194408;23;20031;-88
2023/05/20 07:46:08;;;;;;;3.50;0.68;;;17.10;62.30;;;;;;6170978;23;20024;-88
2023/05/20 07:48:39;;;;;;;3.78;1.00;;;17.20;62.20;;;;;;6195242;23;20441;-88
2023/05/20 07:51:07;;;;;;;1.85;0.73;;;17.30;62.00;;;;;;6195180;23;20020;-88
2023/05/20 07:53:38;;;;;;;1.60;0.60;;;17.40;61.70;;;;;;6195744;23;20039;-89
2023/05/20 07:56:07;;;;;;;1.55;0.73;;;17.40;61.50;;;;;;6171629;23;20480;-88
2023/05/20 07:58:42;;;;;;;1.92;0.80;;;17.50;61.30;;;;;;6220087;23;20071;-88
2023/05/20 08:01:25;;;;;;;2.00;1.00;;;17.60;61.10;;;;;;6195273;23;20095;-90
2023/05/20 08:04:26;;;;;;;2.10;0.70;;;17.60;60.90;;;;;;6173250;23;20016;-90
2023/05/20 08:07:25;;;;;;;3.45;1.20;;;17.70;60.60;;;;;;6197759;23;20043;-90
2023/05/20 08:10:46;;;;;;;;;;;;;;;;;;;;;
2023/05/20 08:13:24;;;;;;;3.22;0.85;;;17.80;60.20;;;;;;6219249;23;20016;-88
2023/05/20 08:16:14;;;;;;;;;;;;;;;;;;;;;
2023/05/20 08:18:57;;;;;;;1.95;0.93;;;17.80;59.40;;;;;;6219312;23;20047;-87
2023/05/20 08:21:30;;;;;;;1.67;0.85;;;17.80;59.40;;;;;;6194983;23;20024;-88
2023/05/20 08:28:09;;;;;;;2.75;0.90;;;17.90;59.30;;;;;;6096892;23;20101;-89
2023/05/20 08:38:34;;;;;;;2.20;0.75;;;18.30;58.40;;;;;;6196303;22;20350;-94
2023/05/20 08:41:21;;;;;;;2.25;0.60;;;18.50;58.00;;;;;;6227599;22;20016;-94
2023/05/20 08:44:20;;;;;;;1.75;0.63;;;18.50;57.90;;;;;;6242391;22;20098;-94
2023/05/20 08:46:50;;;;;;;2.00;0.77;;;18.50;57.80;;;;;;6251213;22;20019;-96
2023/05/20 08:49:27;;;;;;;1.83;0.80;;;18.50;57.60;;;;;;6229503;22;20022;-94
2023/05/20 08:52:20;;;;;;;3.45;0.77;;;18.40;57.50;;;;;;6212040;22;20020;-95
2023/05/20 08:55:02;;;;;;;2.78;0.82;;;18.50;57.30;;;;;;6235400;22;20015;-96
2023/05/20 09:01:53;;;;;;;1.50;0.80;;;18.50;56.80;;;;;;6279105;22;20516;-94
2023/05/20 09:09:02;;;;;;;2.72;0.80;;;18.70;56.30;;;;;;6227406;23;20078;-95
2023/05/20 09:11:41;;;;;;;1.88;0.60;;;18.70;55.70;;;;;;6171230;23;20017;-96
2023/05/20 09:14:25;;;;;;;3.92;0.82;;;18.80;55.40;;;;;;6160831;23;20079;-94
2023/05/20 09:17:17;;;;;;;1.67;0.50;;;18.80;55.20;;;;;;6170771;23;20028;-94
2023/05/20 09:19:58;;;;;;;1.23;0.47;;;19.00;55.10;;;;;;6230702;22;20026;-96
2023/05/20 09:23:30;;;;;;;1.33;0.60;;;19.00;54.90;;;;;;6230029;22;20012;-96
2023/05/20 09:31:17;;;;;;;2.00;0.60;;;19.10;54.60;;;;;;6152004;23;20057;-96
2023/05/20 09:35:16;;;;;;;2.60;0.60;;;19.10;54.40;;;;;;6114125;23;20133;-95
2023/05/20 09:38:21;;;;;;;2.22;0.60;;;19.20;54.30;;;;;;6062406;23;20082;-95
2023/05/20 09:41:07;;;;;;;0.85;0.47;;;19.30;54.10;;;;;;6073594;23;20026;-96
2023/05/20 09:43:51;;;;;;;1.48;0.60;;;19.40;53.80;;;;;;6094643;23;20018;-95
2023/05/20 09:46:31;;;;;;;1.50;0.57;;;19.50;53.50;;;;;;6076746;23;20022;-96
2023/05/20 09:49:08;;;;;;;1.23;0.50;;;19.70;53.50;;;;;;6098995;23;20022;-96
2023/05/20 09:51:43;;;;;;;1.35;0.60;;;19.80;53.30;;;;;;6086080;23;20173;-96
2023/05/20 09:54:33;;;;;;;1.27;0.65;;;19.80;53.30;;;;;;6052897;23;20022;-96
2023/05/20 09:57:06;;;;;;;1.40;0.40;;;19.90;53.10;;;;;;6117588;23;20053;-96
2023/05/20 09:59:37;;;;;;;2.50;0.50;;;20.10;53.00;;;;;;6197519;23;20024;-96
2023/05/20 10:03:01;;;;;;;;;;;;;;;;;;;;;
2023/05/20 10:07:00;;;;;;;1.88;0.50;;;20.10;52.50;;;;;;6212065;23;20074;-95
2023/05/20 10:14:16;;;;;;;1.90;0.57;;;20.00;52.20;;;;;;6149407;23;20020;-90
2023/05/20 10:16:57;;;;;;;1.00;0.43;;;20.00;52.40;;;;;;6131782;23;20448;-95
2023/05/20 10:24:34;;;;;;;1.83;0.60;;;20.20;52.00;;;;;;6155446;23;20033;-89
2023/05/20 10:27:48;;;;;;;1.60;0.65;;;20.20;52.00;;;;;;6130647;23;20510;-90
2023/05/20 10:30:24;;;;;;;1.95;0.80;;;20.20;51.90;;;;;;6131610;23;20032;-88
2023/05/20 10:33:04;;;;;;;1.83;0.40;;;20.30;52.00;;;;;;6156047;23;20469;-89
2023/05/20 10:35:51;;;;;;;1.17;0.45;;;20.40;51.80;;;;;;6212609;23;20028;-87
2023/05/20 10:38:28;;;;;;;1.65;0.70;;;20.50;51.50;;;;;;6190457;23;20024;-88
2023/05/20 10:41:12;;;;;;;0.55;0.30;;;20.60;51.40;;;;;;6218998;23;20451;-86
2023/05/20 10:43:43;;;;;;;1.25;0.43;;;20.70;51.40;;;;;;6195493;23;20027;-87
2023/05/20 10:46:19;;;;;;;2.97;0.60;;;20.80;51.30;;;;;;6195138;23;20016;-85
2023/05/20 10:49:02;;;;;;;1.38;0.60;;;20.90;51.00;;;;;;6223565;23;20012;-88
2023/05/20 10:51:37;;;;;;;1.08;0.43;;;21.00;50.70;;;;;;6219264;23;20066;-86
2023/05/20 10:54:08;;;;;;;1.55;0.45;;;21.00;50.40;;;;;;6172182;23;20085;-91
2023/05/20 10:56:35;;;;;;;1.38;0.52;;;21.00;50.30;;;;;;6197709;23;20043;-90
2023/05/20 10:59:32;;;;;;;1.50;0.32;;;21.00;50.40;;;;;;6197687;23;20020;-90
2023/05/20 11:02:02;;;;;;;0.90;0.50;;;21.00;50.40;;;;;;6196928;23;20093;-89
2023/05/20 11:04:31;;;;;;;0.90;0.40;;;21.10;50.40;;;;;;6196265;23;20051;-90
2023/05/20 11:07:01;;;;;;;;;;;21.20;50.20;;;;;;6221757;23;20113;-92
2023/05/20 11:09:33;;;;;;;1.23;0.30;;;21.20;50.20;;;;;;6220593;23;19969;-88
2023/05/20 11:12:06;;;;;;;1.73;0.63;;;21.30;50.20;;;;;;6196196;23;20020;-93
2023/05/20 11:14:34;;;;;;;1.20;0.50;;;21.30;49.90;;;;;;6226558;23;20016;-96
2023/05/20 11:17:05;;;;;;;0.70;0.30;;;21.30;49.90;;;;;;6199421;23;20070;-95
2023/05/20 11:19:36;;;;;;;0.95;0.40;;;21.50;49.80;;;;;;6197798;23;20074;-90
2023/05/20 11:22:30;;;;;;;3.08;0.47;;;21.50;49.40;;;;;;6222842;23;20024;-93
2023/05/20 11:25:06;;;;;;;1.13;0.50;;;21.50;49.30;;;;;;6202254;23;20066;-95
2023/05/20 11:27:52;;;;;;;;;;;;;;;;;;;;;
2023/05/20 11:33:58;;;;;;;2.83;0.50;;;21.40;49.40;;;;;;6329284;22;20031;-93
2023/05/20 11:37:14;;;;;;;1.23;0.40;;;21.30;49.40;;;;;;6169948;23;20458;-86
2023/05/20 11:39:53;;;;;;;0.93;0.30;;;21.40;49.60;;;;;;6223770;23;20032;-89
2023/05/20 11:43:01;;;;;;;1.55;0.30;;;21.50;49.40;;;;;;6218322;23;20267;-87
2023/05/20 11:45:43;;;;;;;0.93;0.40;;;21.60;49.30;;;;;;6189206;23;20020;-94
2023/05/20 11:48:14;;;;;;;0.70;0.30;;;21.90;49.00;;;;;;6190104;23;20021;-93
2023/05/20 11:51:10;;;;;;;1.35;0.40;;;22.30;48.60;;;;;;6202659;23;20086;-91
2023/05/20 11:54:01;;;;;;;0.82;0.30;;;22.50;48.00;;;;;;6215877;23;20024;-92
2023/05/20 11:56:42;;;;;;;1.58;0.52;;;22.60;48.00;;;;;;6214948;23;20027;-89
2023/05/20 11:59:23;;;;;;;0.50;0.30;;;22.70;47.70;;;;;;6204825;23;20025;-87
2023/05/20 12:01:53;;;;;;;0.63;0.30;;;22.70;47.80;;;;;;6188032;23;20024;-91
2023/05/20 12:04:21;;;;;;;0.93;0.50;;;22.80;47.80;;;;;;6214449;23;20016;-93
2023/05/20 12:07:37;;;;;;;2.10;0.40;;;22.80;47.60;;;;;;6237302;23;20545;-93
2023/05/20 12:10:08;;;;;;;0.90;0.30;;;22.90;47.50;;;;;;6215521;23;20013;-91
2023/05/20 12:12:45;;;;;;;1.05;0.30;;;23.00;47.40;;;;;;6191639;22;20016;-94
2023/05/20 12:15:16;;;;;;;0.90;0.30;;;23.10;47.40;;;;;;6250548;22;20019;-90
2023/05/20 12:18:05;;;;;;;0.55;0.30;;;23.10;47.30;;;;;;6226762;22;20019;-95
2023/05/20 12:21:03;;;;;;;1.00;0.47;;;23.10;47.30;;;;;;6213891;23;20095;-93
2023/05/20 12:23:33;;;;;;;0.82;0.38;;;23.00;47.00;;;;;;6249707;22;20023;-93
2023/05/20 12:26:30;;;;;;;0.60;0.40;;;23.00;47.10;;;;;;6251193;22;20020;-95
2023/05/20 12:28:59;;;;;;;1.42;0.30;;;23.00;47.10;;;;;;6225365;22;20020;-94
2023/05/20 12:31:51;;;;;;;0.98;0.30;;;23.10;47.20;;;;;;6276633;22;20015;-92
2023/05/20 12:34:36;;;;;;;1.23;0.32;;;23.20;47.10;;;;;;6248730;22;20020;-91
2023/05/20 12:37:21;;;;;;;;;;;;;;;;;;;;;
2023/05/20 12:43:29;;;;;;;1.30;0.40;;;23.10;47.20;;;;;;6261964;22;20102;-90
2023/05/20 12:46:00;;;;;;;0.65;0.30;;;22.90;47.00;;;;;;6250639;22;20094;-95
2023/05/20 12:48:40;;;;;;;0.93;0.50;;;22.80;47.30;;;;;;6226790;22;20497;-94
2023/05/20 12:51:19;;;;;;;1.17;0.32;;;22.80;47.20;;;;;;6251641;22;20019;-91
2023/05/20 12:54:10;;;;;;;1.15;0.30;;;22.80;47.40;;;;;;6276032;22;20099;-92
2023/05/20 12:56:39;;;;;;;1.23;0.57;;;23.00;47.20;;;;;;6250564;22;20081;-88
2023/05/20 12:59:36;;;;;;;0.70;0.30;;;23.10;47.00;;;;;;6253104;22;20020;-91
2023/05/20 13:02:33;;;;;;;1.42;0.47;;;23.40;46.70;;;;;;6276460;22;20065;-91
2023/05/20 13:05:03;;;;;;;1.70;0.50;;;23.40;46.30;;;;;;6232222;22;20043;-90
2023/05/20 13:07:48;;;;;;;1.08;0.47;;;23.50;46.30;;;;;;6225896;22;20028;-94
2023/05/20 13:21:02;;;;;;;1.05;0.40;;;23.80;46.20;;;;;;6249987;23;20024;-92
2023/05/20 13:23:30;;;;;;;1.23;0.30;;;23.60;46.40;;;;;;6250310;23;20031;-91
2023/05/20 13:30:11;;;;;;;0.70;0.30;;;23.60;46.50;;;;;;6103599;23;20030;-88
2023/05/20 13:41:06;;;;;;;1.00;0.40;;;23.80;46.30;;;;;;6125247;23;20010;-85
2023/05/20 13:43:36;;;;;;;3.25;0.40;;;23.90;46.20;;;;;;6102026;23;20022;-86
2023/05/20 13:46:11;;;;;;;1.50;0.40;;;23.90;46.10;;;;;;6154546;22;20031;-86
2023/05/20 13:48:38;;;;;;;0.75;0.32;;;23.90;46.10;;;;;;6250775;22;20058;-89
2023/05/20 13:51:58;;;;;;;2.17;0.50;;;23.90;46.10;;;;;;6276271;22;20020;-89
2023/05/20 13:55:20;;;;;;;0.80;0.43;;;24.10;45.80;;;;;;6251109;22;20102;-90
2023/05/20 13:58:08;;;;;;;1.10;0.40;;;24.30;45.50;;;;;;6252308;22;20438;-90
2023/05/20 14:01:05;;;;;;;1.33;0.47;;;24.40;45.50;;;;;;6228666;22;20015;-93
2023/05/20 14:03:33;;;;;;;1.10;0.40;;;24.90;45.00;;;;;;6226894;22;20023;-91
2023/05/20 14:06:03;;;;;;;1.58;0.50;;;25.50;44.60;;;;;;6252262;22;20075;-88
2023/05/20 14:08:59;;;;;;;0.93;0.40;;;26.50;43.60;;;;;;6251696;22;20035;-88
2023/05/20 14:11:31;;;;;;;1.83;0.40;;;26.50;43.10;;;;;;6276544;22;20020;-92
2023/05/20 14:13:58;;;;;;;0.80;0.40;;;26.30;43.70;;;;;;6251218;22;20026;-91
2023/05/20 14:16:38;;;;;;;1.42;0.40;;;26.50;43.20;;;;;;6251445;22;20022;-88
2023/05/20 14:19:26;;;;;;;1.98;0.40;;;26.20;43.30;;;;;;6256831;22;20054;-90
2023/05/20 14:21:56;;;;;;;0.82;0.38;;;25.40;44.10;;;;;;6250606;22;20499;-86
2023/05/20 14:24:23;;;;;;;4.13;0.40;;;24.70;44.70;;;;;;6250892;22;20188;-87
2023/05/20 14:26:55;;;;;;;2.13;0.40;;;24.50;45.10;;;;;;6276618;22;20027;-87
2023/05/20 14:29:31;;;;;;;;;;;25.90;43.90;;;;;;6252105;22;20366;-90
2023/05/20 14:32:02;;;;;;;0.95;0.38;;;26.70;42.90;;;;;;6251270;22;20322;-90
2023/05/20 14:34:33;;;;;;;0.50;0.30;;;26.30;42.70;;;;;;6251627;22;20015;-89
2023/05/20 14:37:06;;;;;;;1.15;0.30;;;25.70;43.30;;;;;;6226689;22;20012;-94
2023/05/20 14:39:37;;;;;;;0.70;0.30;;;25.10;43.90;;;;;;6251887;22;20023;-93
2023/05/20 14:42:07;;;;;;;1.92;0.30;;;24.60;44.60;;;;;;6251559;22;20024;-93
2023/05/20 14:44:37;;;;;;;2.08;0.60;;;24.20;44.90;;;;;;6252254;22;20023;-93
2023/05/20 14:47:07;;;;;;;1.80;0.60;;;23.90;45.10;;;;;;6252432;22;20047;-92
2023/05/20 14:49:38;;;;;;;0.80;0.35;;;24.40;44.60;;;;;;6251734;22;20090;-92
2023/05/20 14:52:06;;;;;;;0.90;0.50;;;25.80;43.00;;;;;;6252494;22;20110;-90
2023/05/20 14:54:35;;;;;;;0.57;0.40;;;25.80;42.30;;;;;;6253538;22;20016;-93
2023/05/20 14:57:25;;;;;;;0.98;0.40;;;25.00;43.00;;;;;;6256587;22;20019;-90
2023/05/20 14:59:52;;;;;;;1.15;0.40;;;24.30;44.10;;;;;;6275561;22;20024;-86
2023/05/20 15:02:19;;;;;;;2.45;0.40;;;23.90;44.50;;;;;;6250275;22;20024;-89
2023/05/20 15:04:47;;;;;;;1.67;0.40;;;23.60;44.50;;;;;;6251847;22;20333;-90
2023/05/20 15:07:15;;;;;;;2.35;0.50;;;23.80;44.30;;;;;;6252480;22;20047;-87
2023/05/20 15:09:49;;;;;;;1.10;0.55;;;23.70;44.40;;;;;;6252723;22;20047;-93
2023/05/20 15:12:46;;;;;;;1.45;0.50;;;23.40;44.60;;;;;;6165474;23;20013;-93
2023/05/20 15:15:34;;;;;;;0.95;0.38;;;23.20;45.10;;;;;;6162733;23;20083;-91
2023/05/20 15:18:07;;;;;;;1.88;0.30;;;23.10;45.10;;;;;;6133707;23;20490;-89
2023/05/20 15:20:46;;;;;;;0.93;0.40;;;23.50;45.00;;;;;;6178917;23;20029;-93
2023/05/20 15:23:15;;;;;;;0.70;0.20;;;23.70;44.60;;;;;;6166142;23;20080;-89
2023/05/20 15:25:47;;;;;;;1.30;0.35;;;23.50;44.80;;;;;;6162321;23;20021;-87
2023/05/20 15:28:18;;;;;;;1.30;0.30;;;23.30;45.10;;;;;;6186155;23;20021;-91